Time;durP1;ratioP1;P1;durP2;ratioP2;P2;SDS_P1;SDS_P2;PMS_P1;PMS_P2;Temp;Humidity;BMP_temperature;BMP_pressure;BME280_temperature;BME280_humidity;BME280_pressure;Samples;Min_cycle;Max_cycle;Signal;HPM_P1;HPM_P2
2022/10/31 00:01:47;;;;;;;10.32;4.03;;;;;;;14.07;85.18;101340.19;5997825;28;20037;-68
2022/10/31 00:04:42;;;;;;;9.13;3.50;;;;;;;14.08;85.45;101339.19;5997852;28;20035;-68
2022/10/31 00:07:37;;;;;;;10.97;3.60;;;;;;;13.95;86.23;101338.72;6002161;28;20039;-68
2022/10/31 00:10:33;;;;;;;8.03;3.47;;;;;;;13.80;86.28;101326.94;6001937;28;20035;-68
2022/10/31 00:13:28;;;;;;;10.67;3.30;;;;;;;13.84;86.46;101338.97;6001752;28;20270;-68
2022/10/31 00:16:25;;;;;;;12.63;4.17;;;;;;;13.74;87.18;101343.53;6001789;28;20743;-68
2022/10/31 00:19:20;;;;;;;10.90;4.07;;;;;;;13.60;87.98;101344.03;6000958;28;20298;-67
2022/10/31 00:22:15;;;;;;;9.57;3.73;;;;;;;13.51;88.10;101339.59;6001313;28;20037;-68
2022/10/31 00:25:12;;;;;;;11.00;4.10;;;;;;;13.34;88.30;101321.78;6002005;28;20030;-68
2022/10/31 00:28:10;;;;;;;10.02;3.63;;;;;;;13.19;89.75;101324.06;6002869;28;20066;-68
2022/10/31 00:31:07;;;;;;;9.73;4.40;;;;;;;13.02;90.19;101328.31;6002654;28;20042;-68
2022/10/31 00:34:03;;;;;;;8.07;3.97;;;;;;;12.97;90.99;101341.25;6001319;28;20097;-67
2022/10/31 00:36:58;;;;;;;8.45;3.88;;;;;;;12.98;92.04;101350.06;6001335;28;20031;-68
2022/10/31 00:39:54;;;;;;;11.93;4.33;;;;;;;12.80;92.32;101338.50;6001683;28;20034;-68
2022/10/31 00:42:49;;;;;;;12.93;4.27;;;;;;;12.75;93.14;101336.25;6000891;28;20825;-67
2022/10/31 00:45:44;;;;;;;11.60;4.17;;;;;;;12.74;93.10;101344.41;6001374;28;20101;-68
2022/10/31 00:48:39;;;;;;;12.57;4.30;;;;;;;12.77;92.72;101344.97;6001444;28;20046;-68
2022/10/31 00:51:35;;;;;;;16.53;4.67;;;;;;;12.67;93.70;101338.81;6000563;28;20047;-67
2022/10/31 00:54:30;;;;;;;15.97;4.67;;;;;;;12.84;93.19;101356.69;6001401;28;20085;-68
2022/10/31 00:57:26;;;;;;;13.35;5.22;;;;;;;12.89;92.43;101359.75;6001305;28;20041;-68
2022/10/31 01:00:21;;;;;;;9.97;4.60;;;;;;;12.85;91.91;101353.06;6000934;28;20034;-68
2022/10/31 01:03:16;;;;;;;12.83;4.63;;;;;;;12.89;91.91;101354.44;6000605;28;20365;-68
2022/10/31 01:06:13;;;;;;;12.30;4.83;;;;;;;12.81;92.37;101372.97;6000873;28;20037;-68
2022/10/31 01:09:10;;;;;;;11.00;4.40;;;;;;;12.74;92.85;101371.03;6001115;28;20031;-67
2022/10/31 01:12:05;;;;;;;25.98;5.18;;;;;;;12.69;92.86;101368.78;5999104;28;20110;-68
2022/10/31 01:15:00;;;;;;;11.20;4.05;;;;;;;12.67;93.19;101365.41;6000737;28;20039;-67
2022/10/31 01:17:56;;;;;;;10.63;4.40;;;;;;;12.74;93.58;101382.50;6000227;28;20034;-68
2022/10/31 01:21:21;;;;;;;8.73;4.20;;;;;;;12.67;93.05;101376.06;5998638;28;20042;-68
2022/10/31 01:24:17;;;;;;;10.85;4.70;;;;;;;12.71;93.33;101381.94;5999362;28;20050;-68
2022/10/31 01:27:12;;;;;;;15.70;4.37;;;;;;;12.67;93.92;101377.88;6000555;28;20070;-67
2022/10/31 01:30:07;;;;;;;12.37;4.50;;;;;;;12.57;93.77;101369.94;5999932;28;20074;-68
2022/10/31 01:33:03;;;;;;;11.38;5.32;;;;;;;12.54;93.94;101375.53;5999884;28;20427;-67
2022/10/31 01:35:59;;;;;;;12.57;4.87;;;;;;;12.65;94.68;101399.31;6000275;28;20125;-68
2022/10/31 01:39:00;;;;;;;14.80;5.20;;;;;;;12.55;94.20;101387.88;6000379;28;20037;-67
2022/10/31 01:41:55;;;;;;;13.40;4.57;;;;;;;12.56;95.16;101394.84;6000117;28;20035;-68
2022/10/31 01:44:53;;;;;;;10.87;4.33;;;;;;;12.52;94.92;101399.63;6000336;28;20110;-68
2022/10/31 01:47:49;;;;;;;13.80;4.97;;;;;;;12.44;95.08;101390.69;5999801;28;20045;-68
2022/10/31 01:50:46;;;;;;;12.35;4.97;;;;;;;12.40;95.93;101389.25;5997928;28;20113;-67
2022/10/31 01:53:42;;;;;;;10.02;4.88;;;;;;;12.41;96.00;101390.97;5999194;28;20042;-68
2022/10/31 01:56:40;;;;;;;13.02;5.53;;;;;;;12.49;96.49;101410.56;5998891;28;20054;-68
2022/10/31 01:59:40;;;;;;;18.70;5.18;;;;;;;12.52;96.05;101404.13;5999251;28;20062;-68
2022/10/31 02:02:35;;;;;;;15.27;5.88;;;;;;;12.54;96.62;101391.50;5997444;28;20070;-68
2022/10/31 02:05:31;;;;;;;15.55;5.25;;;;;;;12.51;96.70;101397.09;6000051;28;20470;-67
2022/10/31 02:08:29;;;;;;;13.65;5.70;;;;;;;12.58;96.35;101411.53;5999472;28;20030;-68
2022/10/31 02:11:25;;;;;;;16.63;5.40;;;;;;;12.55;96.79;101422.47;5997510;28;20073;-68
2022/10/31 02:14:22;;;;;;;13.27;5.65;;;;;;;12.60;96.66;101428.19;5998992;28;20462;-68
2022/10/31 02:17:18;;;;;;;11.95;5.35;;;;;;;12.59;97.41;101413.19;5999788;28;20034;-67
2022/10/31 02:20:15;;;;;;;12.77;5.97;;;;;;;12.54;97.21;101415.44;5999031;28;20121;-68
2022/10/31 02:23:32;;;;;;;16.92;6.32;;;;;;;12.63;97.62;101437.72;5997677;28;20027;-68
2022/10/31 02:26:31;;;;;;;14.55;6.45;;;;;;;12.65;97.70;101436.59;5999149;28;20038;-68
2022/10/31 02:30:04;;;;;;;16.33;6.35;;;;;;;12.60;97.95;101433.50;5998468;28;20045;-68
2022/10/31 02:33:10;;;;;;;17.10;7.30;;;;;;;12.51;98.78;101429.03;5997544;28;20375;-68
2022/10/31 02:36:16;;;;;;;20.45;6.43;;;;;;;12.57;99.15;101443.59;5998013;28;20034;-68
2022/10/31 02:39:29;;;;;;;16.88;5.88;;;;;;;12.49;99.29;101431.84;5997789;28;20065;-67
2022/10/31 02:42:41;;;;;;;15.68;5.90;;;;;;;12.61;99.08;101440.50;5998253;28;20106;-68
2022/10/31 02:45:58;;;;;;;19.63;7.47;;;;;;;12.55;98.82;101443.75;5998610;28;20554;-68
2022/10/31 02:48:57;;;;;;;16.60;6.55;;;;;;;12.50;99.20;101440.66;5997941;28;20169;-68
2022/10/31 02:51:53;;;;;;;15.63;6.20;;;;;;;12.33;99.39;101431.56;5998505;28;20026;-68
2022/10/31 02:54:48;;;;;;;18.63;7.35;;;;;;;12.22;99.74;101442.34;5998756;28;20101;-67
2022/10/31 02:57:43;;;;;;;16.52;6.75;;;;;;;12.14;100.00;101433.38;5998998;28;20119;-68
2022/10/31 03:01:20;;;;;;;17.73;6.80;;;;;;;11.92;100.00;101437.94;5997898;28;20058;-67
2022/10/31 03:04:43;;;;;;;16.10;7.25;;;;;;;12.05;100.00;101447.47;5997282;28;20509;-67
2022/10/31 03:07:55;;;;;;;18.40;6.85;;;;;;;11.85;100.00;101430.63;5998178;28;20104;-68
2022/10/31 03:10:58;;;;;;;14.80;6.97;;;;;;;11.73;100.00;101437.91;5998058;28;20043;-68
2022/10/31 03:14:19;;;;;;;16.00;7.00;;;;;;;11.77;100.00;101449.09;5997076;28;20039;-68
2022/10/31 03:17:22;;;;;;;21.85;7.35;;;;;;;12.08;100.00;101434.75;5999678;28;20075;-68
2022/10/31 03:20:20;;;;;;;18.85;7.40;;;;;;;11.96;100.00;101458.94;5997173;28;20065;-67
2022/10/31 03:23:18;;;;;;;14.38;7.32;;;;;;;12.03;100.00;101457.41;5996964;28;20118;-67
2022/10/31 03:26:14;;;;;;;17.00;7.30;;;;;;;11.94;100.00;101443.97;5997347;28;20031;-68
2022/10/31 03:29:11;;;;;;;13.32;5.75;;;;;;;11.92;100.00;101437.94;5997096;28;20035;-67
2022/10/31 03:32:17;;;;;;;15.05;7.57;;;;;;;11.64;100.00;101462.59;5997445;28;20127;-67
2022/10/31 03:35:14;;;;;;;17.08;7.53;;;;;;;11.54;100.00;101455.56;5981031;28;20122;-68
2022/10/31 03:38:09;;;;;;;18.75;6.90;;;;;;;11.74;100.00;101463.47;5997139;28;20595;-67
2022/10/31 03:41:07;;;;;;;19.70;6.80;;;;;;;11.87;100.00;101461.44;6000127;28;20027;-67
2022/10/31 03:44:06;;;;;;;17.33;7.60;;;;;;;11.94;100.00;101453.75;6001062;28;20035;-67
2022/10/31 03:47:03;;;;;;;20.88;7.28;;;;;;;12.04;100.00;101467.06;6003183;28;20495;-68
2022/10/31 03:49:59;;;;;;;15.70;7.68;;;;;;;12.06;100.00;101457.13;6002303;28;20104;-67
2022/10/31 03:52:58;;;;;;;18.65;7.72;;;;;;;11.90;100.00;101450.50;6000804;28;20035;-67
2022/10/31 03:56:01;;;;;;;22.00;8.45;;;;;;;11.69;100.00;101484.31;6001257;28;20062;-67
2022/10/31 03:59:05;;;;;;;20.10;8.00;;;;;;;11.58;100.00;101487.03;6000620;28;20845;-67
2022/10/31 04:02:05;;;;;;;22.38;8.20;;;;;;;11.30;100.00;101469.16;6000866;28;20478;-67
2022/10/31 04:05:01;;;;;;;22.80;8.75;;;;;;;11.01;100.00;101476.94;5999914;28;20458;-68
2022/10/31 04:07:58;;;;;;;20.15;7.70;;;;;;;11.15;100.00;101478.41;6001257;28;20037;-68
2022/10/31 04:10:56;;;;;;;22.17;7.90;;;;;;;11.53;100.00;101475.97;6000514;28;20122;-67
2022/10/31 04:13:52;;;;;;;16.98;7.90;;;;;;;11.71;100.00;101489.50;6000961;28;20031;-67
2022/10/31 04:16:47;;;;;;;20.77;8.13;;;;;;;11.70;100.00;101483.34;6001136;28;20026;-68
2022/10/31 04:19:43;;;;;;;21.55;8.63;;;;;;;11.68;100.00;101481.75;6001869;28;20086;-67
2022/10/31 04:22:38;;;;;;;25.80;9.25;;;;;;;11.74;100.00;101486.56;6001320;28;20393;-68
2022/10/31 04:25:33;;;;;;;20.67;8.40;;;;;;;11.73;100.00;101469.78;6001559;28;20113;-67
2022/10/31 04:28:29;;;;;;;18.10;7.73;;;;;;;11.59;100.00;101474.59;6002358;28;20278;-68
2022/10/31 04:31:24;;;;;;;22.40;9.07;;;;;;;11.45;100.00;101481.09;6001554;28;20106;-67
2022/10/31 04:34:19;;;;;;;21.67;7.97;;;;;;;11.70;100.00;101493.97;6001457;28;20325;-67
2022/10/31 04:37:15;;;;;;;20.50;8.65;;;;;;;11.66;100.00;101483.72;6001943;28;20046;-68
2022/10/31 04:40:10;;;;;;;22.33;7.70;;;;;;;11.77;100.00;101508.38;6000503;28;20497;-67
2022/10/31 04:43:06;;;;;;;21.77;8.80;;;;;;;11.56;100.00;101501.41;6001326;28;20066;-67
2022/10/31 04:46:02;;;;;;;20.67;8.03;;;;;;;11.58;100.00;101513.59;6001741;28;20038;-68
2022/10/31 04:48:57;;;;;;;21.20;8.05;;;;;;;11.49;100.00;101517.06;6001444;28;20034;-68
2022/10/31 04:51:53;;;;;;;20.47;8.60;;;;;;;11.16;100.00;101527.88;6000122;28;20437;-67
2022/10/31 04:54:48;;;;;;;24.17;9.30;;;;;;;11.15;100.00;101521.72;6000724;28;20062;-67
2022/10/31 04:57:48;;;;;;;22.17;8.83;;;;;;;11.25;100.00;101522.63;6001574;28;20277;-67
2022/10/31 05:00:44;;;;;;;21.02;9.40;;;;;;;11.49;100.00;101508.25;6000618;28;20282;-67
2022/10/31 05:03:39;;;;;;;18.87;8.30;;;;;;;11.53;100.00;101510.50;6001142;28;20546;-67
2022/10/31 05:06:34;;;;;;;20.25;8.38;;;;;;;11.35;100.00;101502.31;6000653;28;20038;-67
2022/10/31 05:09:30;;;;;;;26.13;10.00;;;;;;;11.43;100.00;101511.41;6001130;28;20043;-67
2022/10/31 05:12:25;;;;;;;28.00;10.43;;;;;;;11.40;100.00;101507.22;6000611;28;20062;-68
2022/10/31 05:15:23;;;;;;;26.17;9.57;;;;;;;11.48;100.00;101503.88;6000822;28;20290;-68
2022/10/31 05:18:19;;;;;;;25.13;10.07;;;;;;;11.35;100.00;101517.41;6000990;28;20023;-68
2022/10/31 05:21:14;;;;;;;23.87;9.63;;;;;;;11.11;100.00;101492.94;5999987;28;20046;-67
2022/10/31 05:24:09;;;;;;;19.97;8.50;;;;;;;11.24;100.00;101501.53;6000384;28;20038;-68
2022/10/31 05:27:04;;;;;;;21.70;8.77;;;;;;;11.28;100.00;101501.13;6000446;28;20070;-67
2022/10/31 05:30:00;;;;;;;26.90;10.63;;;;;;;11.22;100.00;101495.53;6000746;28;20126;-67
2022/10/31 05:32:56;;;;;;;25.20;9.13;;;;;;;11.17;100.00;101482.63;5999688;28;20037;-68
2022/10/31 05:35:51;;;;;;;20.90;8.88;;;;;;;11.30;100.00;101493.06;6000620;28;20034;-67
2022/10/31 05:38:46;;;;;;;27.07;10.37;;;;;;;11.19;100.00;101495.78;6000486;28;20041;-67
2022/10/31 05:41:42;;;;;;;24.20;10.50;;;;;;;11.22;100.00;101482.25;6000266;28;20035;-68
2022/10/31 05:44:37;;;;;;;21.80;8.93;;;;;;;11.31;100.00;101492.06;5999881;28;20039;-68
2022/10/31 05:47:32;;;;;;;22.90;10.30;;;;;;;11.38;100.00;101485.25;6000236;28;20081;-68
2022/10/31 05:50:29;;;;;;;26.03;9.67;;;;;;;11.16;100.00;101507.50;5999258;28;20038;-68
2022/10/31 05:53:25;;;;;;;28.88;10.07;;;;;;;10.79;100.00;101518.69;5999953;28;20031;-68
2022/10/31 05:56:20;;;;;;;24.03;9.33;;;;;;;10.54;100.00;101514.56;6000172;28;20042;-67
2022/10/31 05:59:15;;;;;;;17.97;8.40;;;;;;;10.86;100.00;101510.09;5999893;28;20059;-68
2022/10/31 06:02:11;;;;;;;28.37;10.30;;;;;;;10.92;100.00;101500.78;6000030;28;20588;-68
2022/10/31 06:05:06;;;;;;;23.37;9.07;;;;;;;10.86;100.00;101511.88;6001178;28;20027;-67
2022/10/31 06:08:01;;;;;;;22.80;8.02;;;;;;;10.86;100.00;101495.97;5999769;28;20034;-68
2022/10/31 06:10:57;;;;;;;22.42;8.88;;;;;;;11.03;100.00;101520.13;5999145;28;20035;-67
2022/10/31 06:13:52;;;;;;;27.57;9.60;;;;;;;11.10;100.00;101523.09;5999250;28;20037;-67
2022/10/31 06:16:47;;;;;;;21.20;9.17;;;;;;;10.63;100.00;101519.94;5999403;28;20301;-67
2022/10/31 06:19:43;;;;;;;22.33;9.43;;;;;;;10.65;100.00;101518.00;5999805;28;20055;-67
2022/10/31 06:22:38;;;;;;;19.40;8.83;;;;;;;10.79;100.00;101506.25;5998841;28;20277;-67
2022/10/31 06:25:33;;;;;;;27.23;10.20;;;;;;;11.12;100.00;101529.09;5999563;28;20037;-67
2022/10/31 06:28:29;;;;;;;26.73;9.68;;;;;;;11.16;100.00;101530.53;5999712;28;20062;-67
2022/10/31 06:31:25;;;;;;;23.37;8.83;;;;;;;10.83;100.00;101528.91;5998805;28;20043;-67
2022/10/31 06:34:20;;;;;;;20.77;8.55;;;;;;;10.40;100.00;101534.25;5998708;28;20154;-70
2022/10/31 06:37:16;;;;;;;24.13;9.30;;;;;;;10.98;100.00;101550.69;5998941;28;20043;-67
2022/10/31 06:40:12;;;;;;;24.80;9.43;;;;;;;11.19;100.00;101543.56;5998790;28;20394;-68
2022/10/31 06:43:08;;;;;;;24.80;9.68;;;;;;;11.28;100.00;101554.22;5998976;28;20073;-68
2022/10/31 06:46:04;;;;;;;27.35;8.77;;;;;;;11.51;100.00;101554.94;5999070;28;20119;-67
2022/10/31 06:49:00;;;;;;;24.48;9.43;;;;;;;11.55;100.00;101548.38;5998660;28;20030;-68
2022/10/31 06:51:55;;;;;;;21.20;9.20;;;;;;;11.56;98.96;101530.63;5998410;28;20465;-68
2022/10/31 06:54:50;;;;;;;23.73;9.53;;;;;;;11.33;99.38;101541.41;5998872;28;20058;-68
2022/10/31 06:57:53;;;;;;;31.63;10.60;;;;;;;11.78;100.00;101544.63;5998871;28;20113;-68
2022/10/31 07:00:48;;;;;;;27.42;10.30;;;;;;;11.42;100.00;101538.94;5996103;28;20118;-68
2022/10/31 07:03:43;;;;;;;30.80;11.77;;;;;;;11.00;100.00;101527.50;5998676;28;20434;-67
2022/10/31 07:06:39;;;;;;;24.13;10.30;;;;;;;11.29;100.00;101544.47;5998341;28;20039;-67
2022/10/31 07:09:34;;;;;;;24.47;9.63;;;;;;;11.19;100.00;101548.88;5999042;28;20075;-68
2022/10/31 07:12:29;;;;;;;25.00;9.70;;;;;;;11.83;100.00;101539.75;5998271;28;20029;-67
2022/10/31 07:15:26;;;;;;;22.40;8.83;;;;;;;12.17;100.00;101542.09;5999594;28;20368;-68
2022/10/31 07:18:21;;;;;;;18.27;8.80;;;;;;;12.16;100.00;101527.13;6003657;28;20023;-68
2022/10/31 07:21:16;;;;;;;27.07;10.17;;;;;;;12.44;100.00;101550.28;6002841;28;20367;-68
2022/10/31 07:24:12;;;;;;;18.67;8.60;;;;;;;12.63;98.46;101534.34;6002759;28;20286;-68
2022/10/31 07:27:07;;;;;;;20.67;8.57;;;;;;;12.82;95.94;101539.69;6002960;28;20278;-67
2022/10/31 07:30:03;;;;;;;19.20;8.80;;;;;;;12.82;96.68;101560.97;6002947;28;20035;-68
2022/10/31 07:32:58;;;;;;;19.05;8.95;;;;;;;12.62;98.20;101567.25;6002824;28;20046;-67
2022/10/31 07:35:54;;;;;;;19.63;8.60;;;;;;;12.48;99.12;101564.97;6002643;28;20374;-67
2022/10/31 07:38:49;;;;;;;20.92;7.97;;;;;;;12.50;99.93;101571.03;6003331;28;20527;-68
2022/10/31 07:41:45;;;;;;;19.30;8.57;;;;;;;12.39;100.00;101549.88;6002645;28;20381;-68
2022/10/31 07:44:40;;;;;;;20.87;9.23;;;;;;;12.37;100.00;101562.44;6002977;28;20065;-67
2022/10/31 07:47:43;;;;;;;21.13;9.60;;;;;;;12.53;100.00;101563.59;6003030;28;20061;-67
2022/10/31 07:50:39;;;;;;;24.17;10.32;;;;;;;12.80;100.00;101551.44;6002089;28;20030;-68
2022/10/31 07:53:34;;;;;;;21.17;9.60;;;;;;;13.01;100.00;101560.97;6002661;28;20042;-68
2022/10/31 07:56:29;;;;;;;21.17;8.57;;;;;;;12.92;100.00;101547.66;6002395;28;20097;-67
2022/10/31 07:59:25;;;;;;;26.33;10.60;;;;;;;13.04;99.67;101544.69;6002412;28;20050;-67
2022/10/31 08:02:21;;;;;;;22.98;10.30;;;;;;;13.00;100.00;101543.31;6001782;28;20039;-68
2022/10/31 08:05:17;;;;;;;25.00;11.15;;;;;;;12.95;100.00;101548.22;6002211;28;20034;-68
2022/10/31 08:08:13;;;;;;;24.15;10.38;;;;;;;12.97;100.00;101556.91;6002626;28;20035;-68
2022/10/31 08:11:08;;;;;;;25.90;11.40;;;;;;;13.09;100.00;101568.28;6001476;28;20042;-68
2022/10/31 08:14:04;;;;;;;26.50;11.63;;;;;;;13.10;100.00;101559.28;6001917;28;20066;-68
2022/10/31 08:16:59;;;;;;;25.27;11.23;;;;;;;13.07;100.00;101555.09;6001770;28;20106;-67
2022/10/31 08:19:54;;;;;;;27.70;11.43;;;;;;;13.17;100.00;101570.22;6002210;28;20133;-68
2022/10/31 08:23:03;;;;;;;30.10;11.63;;;;;;;13.32;100.00;101574.13;6000971;28;20364;-68
2022/10/31 08:25:58;;;;;;;24.98;10.38;;;;;;;13.54;99.35;101565.81;6000850;28;20467;-67
2022/10/31 08:28:54;;;;;;;25.83;10.10;;;;;;;13.79;97.67;101567.84;6000558;28;20038;-67
2022/10/31 08:31:49;;;;;;;26.15;11.07;;;;;;;13.88;96.39;101571.47;5999539;28;20329;-67
2022/10/31 08:34:45;;;;;;;28.70;11.70;;;;;;;14.08;95.91;101579.22;6001497;28;20061;-68
2022/10/31 08:37:41;;;;;;;20.47;10.03;;;;;;;14.41;94.59;101556.47;6000763;28;20379;-67
2022/10/31 08:40:36;;;;;;;23.48;11.18;;;;;;;14.65;92.48;101564.75;5999833;28;20073;-68
2022/10/31 08:43:32;;;;;;;27.38;10.65;;;;;;;14.78;92.10;101562.53;6001446;28;20130;-68
2022/10/31 08:46:27;;;;;;;28.43;10.20;;;;;;;14.92;91.20;101566.50;6001026;28;20043;-68
2022/10/31 08:49:22;;;;;;;24.40;10.70;;;;;;;14.97;90.37;101542.88;6003021;28;20470;-68
2022/10/31 08:52:18;;;;;;;23.53;9.73;;;;;;;15.11;89.88;101544.16;6001770;28;20041;-68
2022/10/31 08:55:13;;;;;;;29.97;9.73;;;;;;;15.21;89.00;101548.41;6001150;28;20143;-67
2022/10/31 08:58:12;;;;;;;21.38;10.00;;;;;;;15.31;88.29;101559.81;6000426;28;20485;-67
2022/10/31 09:01:07;;;;;;;22.33;9.52;;;;;;;15.26;87.47;101546.09;6000174;28;20532;-68
2022/10/31 09:04:02;;;;;;;24.73;10.90;;;;;;;15.37;87.76;101558.38;6001214;28;20031;-68
2022/10/31 09:06:58;;;;;;;25.63;11.77;;;;;;;15.13;89.66;101556.34;6000421;28;20039;-68
2022/10/31 09:09:53;;;;;;;25.20;11.03;;;;;;;15.25;89.47;101544.41;6001141;28;20034;-67
2022/10/31 09:12:55;;;;;;;23.20;10.73;;;;;;;15.63;88.47;101537.00;6000255;28;20037;-68
2022/10/31 09:15:50;;;;;;;32.35;12.45;;;;;;;15.82;86.90;101542.97;6000327;28;20311;-68
2022/10/31 09:18:46;;;;;;;29.77;12.38;;;;;;;15.82;87.87;101536.75;6000473;28;20466;-67
2022/10/31 09:21:41;;;;;;;31.33;11.60;;;;;;;16.23;86.34;101541.28;5998948;28;20034;-67
2022/10/31 09:24:37;;;;;;;30.05;12.23;;;;;;;16.06;84.97;101523.53;5999754;28;20032;-67
2022/10/31 09:27:32;;;;;;;27.93;12.37;;;;;;;16.41;84.64;101536.69;6000742;28;20486;-68
2022/10/31 09:30:29;;;;;;;30.77;12.23;;;;;;;16.05;86.45;101527.19;5999692;28;20090;-68
2022/10/31 09:33:24;;;;;;;25.45;11.02;;;;;;;16.22;86.34;101542.31;6000316;28;20035;-68
2022/10/31 09:36:19;;;;;;;31.77;13.97;;;;;;;16.12;85.55;101538.91;6000334;28;20030;-67
2022/10/31 09:39:15;;;;;;;33.67;12.73;;;;;;;15.78;87.57;101541.63;6000357;28;20122;-67
2022/10/31 09:42:28;;;;;;;26.40;13.33;;;;;;;15.89;87.55;101527.97;6001987;28;20513;-68
2022/10/31 09:45:26;;;;;;;33.28;12.23;;;;;;;16.19;86.75;101534.59;5994221;28;20038;-68
2022/10/31 09:48:44;;;;;;;30.67;11.63;;;;;;;16.13;86.18;101545.94;6000201;28;20041;-68
2022/10/31 09:51:43;;;;;;;35.08;12.60;;;;;;;15.85;87.69;101529.28;5998600;28;20047;-67
2022/10/31 09:54:46;;;;;;;32.50;12.85;;;;;;;16.26;86.67;101535.63;6005765;28;20034;-68
2022/10/31 09:57:41;;;;;;;27.10;11.98;;;;;;;16.26;86.47;101535.63;5997814;28;20101;-69
2022/10/31 10:00:37;;;;;;;30.45;12.00;;;;;;;16.15;86.21;101527.03;6006362;28;20034;-68
2022/10/31 10:03:45;;;;;;;31.03;12.77;;;;;;;16.35;86.45;101540.00;5999968;28;20053;-68
2022/10/31 10:06:44;;;;;;;30.60;11.45;;;;;;;16.72;84.80;101533.41;5998324;28;20050;-68
2022/10/31 10:09:39;;;;;;;27.90;12.18;;;;;;;16.50;84.96;101524.97;5999664;28;20027;-68
2022/10/31 10:12:50;;;;;;;30.47;10.90;;;;;;;16.88;84.21;101531.56;6000249;28;20031;-68
2022/10/31 10:15:57;;;;;;;25.25;11.50;;;;;;;16.93;82.80;101528.41;5999240;28;20027;-68
2022/10/31 10:19:10;;;;;;;34.00;11.48;;;;;;;17.12;82.99;101523.53;5999669;28;20046;-68
2022/10/31 10:22:24;;;;;;;25.27;10.48;;;;;;;17.05;83.07;101521.69;5998779;28;20034;-68
2022/10/31 10:25:23;;;;;;;28.83;11.55;;;;;;;17.14;83.23;101509.97;5998436;28;20043;-68
2022/10/31 10:28:47;;;;;;;30.20;12.68;;;;;;;17.40;82.01;101518.63;5998843;28;20046;-68
2022/10/31 10:31:45;;;;;;;37.83;13.65;;;;;;;17.36;82.55;101503.06;5997624;28;20041;-68
2022/10/31 10:34:46;;;;;;;30.45;12.00;;;;;;;17.89;79.32;101499.75;5997097;28;20038;-68
2022/10/31 10:37:43;;;;;;;34.90;13.45;;;;;;;17.68;79.42;101509.22;5998710;28;20039;-68
2022/10/31 10:40:38;;;;;;;31.15;12.05;;;;;;;17.69;79.62;101508.19;5997659;28;20503;-68
2022/10/31 10:43:36;;;;;;;28.85;11.63;;;;;;;17.89;78.89;101499.75;5998854;28;20034;-69
2022/10/31 10:50:10;;;;;;;33.50;11.73;;;;;;;18.28;76.20;101501.41;5997927;28;20031;-68
2022/10/31 10:53:20;;;;;;;28.70;10.55;;;;;;;18.15;77.99;101495.78;5997931;28;20090;-68
2022/10/31 10:56:44;;;;;;;25.15;9.27;;;;;;;18.03;78.52;101491.81;5997871;28;20461;-69
2022/10/31 10:59:39;;;;;;;22.90;9.88;;;;;;;18.19;78.52;101485.50;5997594;28;20177;-69
2022/10/31 11:02:34;;;;;;;27.90;10.30;;;;;;;17.68;76.97;101476.19;5998307;28;20474;-67
2022/10/31 11:05:37;;;;;;;23.17;9.47;;;;;;;17.33;79.12;101464.03;5998903;28;20470;-68
2022/10/31 11:08:34;;;;;;;29.60;11.15;;;;;;;17.45;81.01;101470.69;5998606;28;20398;-68
2022/10/31 11:11:30;;;;;;;23.70;10.75;;;;;;;17.09;81.27;101470.25;5996913;28;20031;-68
2022/10/31 11:14:27;;;;;;;27.33;10.00;;;;;;;17.19;80.82;101467.41;5997010;28;20073;-68
2022/10/31 11:17:25;;;;;;;29.95;9.73;;;;;;;17.31;80.38;101467.91;5997820;28;20074;-68
2022/10/31 11:20:23;;;;;;;27.25;11.85;;;;;;;16.96;83.01;101469.13;5997965;28;20041;-69
2022/10/31 11:23:20;;;;;;;29.00;11.68;;;;;;;17.09;82.25;101464.09;5998886;28;20038;-68
2022/10/31 11:26:20;;;;;;;25.08;11.15;;;;;;;16.94;83.69;101460.41;5998695;28;20058;-69
2022/10/31 11:29:24;;;;;;;23.05;10.68;;;;;;;17.01;82.33;101450.69;5998465;28;20440;-68
2022/10/31 11:32:24;;;;;;;29.98;10.00;;;;;;;17.04;81.91;101445.00;5994357;28;20035;-68
2022/10/31 11:35:20;;;;;;;;;;;;;;;17.04;81.15;101445.81;5999044;28;20526;-68
2022/10/31 11:38:19;;;;;;;28.48;11.30;;;;;;;17.34;81.16;101435.38;5999386;28;19918;-68
2022/10/31 11:41:19;;;;;;;27.33;11.80;;;;;;;17.46;80.51;101453.59;5996665;28;20038;-68
2022/10/31 11:44:20;;;;;;;26.35;10.48;;;;;;;17.21;81.95;101450.16;5998474;28;20497;-68
2022/10/31 11:47:17;;;;;;;26.73;9.98;;;;;;;17.08;83.04;101432.91;5997571;28;20085;-69
2022/10/31 11:50:19;;;;;;;25.10;9.98;;;;;;;17.49;81.51;101439.84;5996381;28;20092;-69
2022/10/31 11:53:18;;;;;;;24.95;9.68;;;;;;;17.64;78.76;101434.59;5997045;28;20071;-68
2022/10/31 11:56:15;;;;;;;19.73;8.02;;;;;;;17.71;76.83;101439.13;5996791;28;20034;-69
2022/10/31 11:59:24;;;;;;;21.73;9.38;;;;;;;17.45;79.19;101435.00;5998130;28;20440;-69
2022/10/31 12:02:20;;;;;;;24.05;10.52;;;;;;;17.48;79.39;101432.81;5998373;28;20042;-67
2022/10/31 12:05:23;;;;;;;23.98;9.57;;;;;;;17.58;79.98;101438.81;6002930;28;20479;-68
2022/10/31 12:08:18;;;;;;;25.50;10.13;;;;;;;17.41;80.30;101436.34;6002399;28;20097;-68
2022/10/31 12:11:16;;;;;;;18.87;9.23;;;;;;;17.53;79.57;101441.19;6002247;28;20480;-67
2022/10/31 12:14:44;;;;;;;19.98;7.78;;;;;;;17.59;78.02;101434.31;6002258;28;20026;-69
2022/10/31 12:17:54;;;;;;;22.55;8.60;;;;;;;17.57;78.29;101433.66;6002506;28;20518;-68
2022/10/31 12:21:10;;;;;;;20.27;8.75;;;;;;;17.36;79.20;101436.03;6001272;28;20045;-68
2022/10/31 12:24:15;;;;;;;21.85;8.68;;;;;;;16.98;80.20;101418.88;6002494;28;20046;-67
2022/10/31 12:27:32;;;;;;;26.20;7.55;;;;;;;17.13;80.09;101418.00;6001024;28;20041;-68
2022/10/31 12:30:37;;;;;;;20.05;7.85;;;;;;;17.36;79.08;101412.75;6001781;28;20360;-68
2022/10/31 12:33:53;;;;;;;22.67;7.80;;;;;;;17.36;78.74;101409.22;6000411;28;20042;-69
2022/10/31 12:37:01;;;;;;;16.33;6.63;;;;;;;17.54;78.52;101405.31;6000535;28;20035;-69
2022/10/31 12:40:18;;;;;;;20.95;7.93;;;;;;;17.51;78.30;101413.69;6000425;28;20141;-68
2022/10/31 12:43:27;;;;;;;23.40;8.50;;;;;;;17.49;78.27;101398.78;5994237;28;20490;-68
2022/10/31 12:46:28;;;;;;;22.95;8.93;;;;;;;17.30;80.01;101404.53;6000860;28;20026;-68
2022/10/31 12:49:33;;;;;;;21.27;9.27;;;;;;;17.30;80.93;101397.34;6000838;28;20038;-67
2022/10/31 12:52:47;;;;;;;24.40;9.43;;;;;;;17.17;81.45;101376.47;6000816;28;20077;-68
2022/10/31 12:56:10;;;;;;;23.20;8.27;;;;;;;17.06;81.32;101384.03;6000412;28;20117;-67
2022/10/31 12:59:17;;;;;;;24.63;9.25;;;;;;;17.12;81.38;101377.97;5989236;28;20027;-69
2022/10/31 13:02:27;;;;;;;28.42;10.18;;;;;;;17.15;82.04;101364.22;5999500;28;20049;-69
2022/10/31 13:05:37;;;;;;;31.77;13.20;;;;;;;17.06;81.21;101368.78;6000315;28;20038;-69
2022/10/31 13:08:50;;;;;;;38.22;15.52;;;;;;;16.94;82.06;101369.28;5999994;28;20042;-68
2022/10/31 13:11:48;;;;;;;28.25;10.85;;;;;;;16.92;82.34;101360.59;6000632;28;20065;-69
2022/10/31 13:14:54;;;;;;;24.90;9.95;;;;;;;16.92;82.32;101355.25;5999183;28;20100;-68
2022/10/31 13:17:54;;;;;;;31.05;11.00;;;;;;;16.96;81.93;101357.41;6001415;28;20434;-69
2022/10/31 13:20:50;;;;;;;29.17;12.13;;;;;;;17.00;82.64;101352.53;5999308;28;20412;-69
2022/10/31 13:23:49;;;;;;;30.05;11.70;;;;;;;16.98;84.63;101351.88;5999404;28;20027;-68
2022/10/31 13:26:52;;;;;;;33.40;12.43;;;;;;;16.91;85.26;101342.84;6000915;28;20078;-69
2022/10/31 13:30:13;;;;;;;32.28;13.45;;;;;;;16.80;85.93;101336.00;5999290;28;20046;-69
2022/10/31 13:33:19;;;;;;;33.00;13.32;;;;;;;16.64;87.09;101325.31;5999461;28;20481;-68
2022/10/31 13:36:21;;;;;;;31.38;13.10;;;;;;;16.72;86.73;101333.34;6000255;28;20041;-68
2022/10/31 13:39:49;;;;;;;28.80;12.68;;;;;;;16.59;86.96;101333.88;6001196;28;20483;-68
2022/10/31 13:43:02;;;;;;;27.65;11.98;;;;;;;16.66;87.59;101328.66;5998637;28;20471;-69